Time;durP1;ratioP1;P1;durP2;ratioP2;P2;SDS_P1;SDS_P2;PMS_P1;PMS_P2;Temp;Humidity;BMP_temperature;BMP_pressure;BME280_temperature;BME280_humidity;BME280_pressure;Samples;Min_cycle;Max_cycle;Signal;HPM_P1;HPM_P2
2023/08/08 00:01:52;;;;;;;8.43;2.73;;;;;;;-145.18;100.00;46668.22;4952819;28;20479;-64
2023/08/08 00:04:17;;;;;;;5.43;2.20;;;;;;;-145.18;100.00;46666.25;4935253;28;20118;-63
2023/08/08 00:06:43;;;;;;;4.33;2.03;;;;;;;-145.18;100.00;46668.22;4935495;28;20074;-63
2023/08/08 00:09:08;;;;;;;10.50;2.20;;;;;;;-145.18;100.00;46662.34;4935921;29;20070;-63
2023/08/08 00:11:34;;;;;;;8.87;2.13;;;;;;;-145.18;100.00;46666.25;4937282;28;20035;-64
2023/08/08 00:13:59;;;;;;;8.17;2.07;;;;;;;-145.18;100.00;46662.34;4940996;28;20037;-64
2023/08/08 00:16:25;;;;;;;9.43;2.17;;;;;;;-145.18;100.00;46662.34;4947964;28;20039;-63
2023/08/08 00:18:53;;;;;;;11.20;2.27;;;;;;;-145.18;100.00;46672.13;4941776;29;20604;-63
2023/08/08 00:21:18;;;;;;;8.07;2.33;;;;;;;-145.18;100.00;46668.22;4944353;28;20087;-63
2023/08/08 00:23:44;;;;;;;9.50;2.10;;;;;;;-145.18;100.00;46664.31;4940346;28;20487;-62
2023/08/08 00:26:09;;;;;;;9.57;2.13;;;;;;;-145.18;100.00;46664.31;4947435;29;20031;-63
2023/08/08 00:28:34;;;;;;;6.07;2.03;;;;;;;-145.18;100.00;46668.22;4935449;29;20089;-63
2023/08/08 00:31:00;;;;;;;5.60;2.30;;;;;;;-145.18;100.00;46662.34;4935413;28;20036;-63
2023/08/08 00:33:25;;;;;;;9.63;2.07;;;;;;;-145.18;100.00;46664.31;4942495;29;20110;-63
2023/08/08 00:35:50;;;;;;;6.20;2.20;;;;;;;-145.18;100.00;46664.31;4946500;28;20059;-65
2023/08/08 00:38:18;;;;;;;9.70;1.83;;;;;;;-145.18;100.00;46664.31;4946587;28;20039;-63
2023/08/08 00:40:43;;;;;;;8.87;2.13;;;;;;;-145.18;100.00;46664.31;4947558;28;20602;-63
2023/08/08 00:43:08;;;;;;;6.47;2.27;;;;;;;-145.18;100.00;46662.34;4934924;29;20046;-63
2023/08/08 00:45:34;;;;;;;12.10;2.10;;;;;;;-145.18;100.00;46662.34;4938920;28;20038;-64
2023/08/08 00:48:00;;;;;;;7.27;2.53;;;;;;;-145.18;100.00;46658.44;4942689;28;20032;-64
2023/08/08 00:50:26;;;;;;;10.30;2.07;;;;;;;-145.18;100.00;46660.41;4934498;28;20039;-63
2023/08/08 00:52:51;;;;;;;13.83;2.27;;;;;;;-145.18;100.00;46662.34;4933301;29;20499;-64
2023/08/08 00:55:17;;;;;;;6.30;1.90;;;;;;;-145.18;100.00;46666.25;4947227;28;20040;-64
2023/08/08 00:57:43;;;;;;;6.90;2.30;;;;;;;-145.18;100.00;46656.50;4936077;28;20043;-63
2023/08/08 01:00:10;;;;;;;10.43;2.50;;;;;;;-145.18;100.00;46658.44;4936327;28;20091;-64
2023/08/08 01:02:36;;;;;;;4.93;2.10;;;;;;;-145.18;100.00;46660.41;4933922;28;20035;-63
2023/08/08 01:05:03;;;;;;;11.23;2.27;;;;;;;-145.18;100.00;46658.44;4934700;28;20031;-64
2023/08/08 01:07:54;;;;;;;4.43;1.87;;;;;;;-145.18;100.00;46652.59;4934983;28;20040;-63
2023/08/08 01:10:26;;;;;;;11.73;2.50;;;;;;;-145.18;100.00;46654.53;4920114;29;20050;-64
2023/08/08 01:13:05;;;;;;;8.30;3.07;;;;;;;-145.18;100.00;46650.63;4947267;28;20027;-64
2023/08/08 01:15:35;;;;;;;8.03;2.50;;;;;;;-145.18;100.00;46644.78;4934343;28;20036;-64
2023/08/08 01:18:05;;;;;;;10.53;2.90;;;;;;;-145.18;100.00;46650.63;4935449;28;20046;-63
2023/08/08 01:20:33;;;;;;;5.57;2.27;;;;;;;-145.18;100.00;46646.72;4935521;28;20632;-64
2023/08/08 01:23:25;;;;;;;6.00;2.50;;;;;;;-145.18;100.00;46644.78;4947610;28;20028;-63
2023/08/08 01:25:51;;;;;;;13.33;3.13;;;;;;;-145.18;100.00;46638.91;4947305;29;20043;-63
2023/08/08 01:28:22;;;;;;;4.97;2.63;;;;;;;-145.18;100.00;46644.78;4935423;28;20034;-63
2023/08/08 01:30:47;;;;;;;9.20;2.80;;;;;;;-145.18;100.00;46638.91;4936473;28;20050;-63
2023/08/08 01:33:12;;;;;;;10.10;2.60;;;;;;;-145.18;100.00;46640.88;4942271;29;20027;-63
2023/08/08 01:35:41;;;;;;;7.50;2.87;;;;;;;-145.18;100.00;46640.88;4936079;28;20083;-63
2023/08/08 01:38:45;;;;;;;8.73;2.77;;;;;;;-145.18;100.00;46640.88;4943617;28;20039;-63
2023/08/08 01:41:10;;;;;;;13.27;2.30;;;;;;;-145.18;100.00;46638.91;4922725;28;20040;-63
2023/08/08 01:43:40;;;;;;;7.10;2.87;;;;;;;-145.18;100.00;46633.06;4948560;28;20023;-63
2023/08/08 01:46:07;;;;;;;8.93;2.50;;;;;;;-145.18;100.00;46636.94;4951762;28;20495;-63
2023/08/08 01:48:32;;;;;;;13.37;3.47;;;;;;;-145.18;100.00;46636.94;4942436;29;20499;-64
2023/08/08 01:50:58;;;;;;;13.17;3.27;;;;;;;-145.18;100.00;46642.81;4935667;28;20034;-63
2023/08/08 01:53:23;;;;;;;14.20;2.97;;;;;;;-145.18;100.00;46633.06;4954692;28;20036;-63
2023/08/08 01:55:49;;;;;;;6.07;2.73;;;;;;;-145.18;100.00;46638.91;4946976;28;20078;-63
2023/08/08 01:58:15;;;;;;;9.67;3.07;;;;;;;-145.18;100.00;46635.00;4945199;28;20023;-63
2023/08/08 02:00:44;;;;;;;11.63;2.77;;;;;;;-145.18;100.00;46638.91;4945035;29;20518;-63
2023/08/08 02:03:10;;;;;;;10.40;3.33;;;;;;;-145.18;100.00;46635.00;4936965;28;20028;-63
2023/08/08 02:05:35;;;;;;;9.53;2.80;;;;;;;-145.18;100.00;46636.94;4946224;28;20045;-63
2023/08/08 02:08:01;;;;;;;11.40;3.23;;;;;;;-145.18;100.00;46635.00;4950587;28;20030;-63
2023/08/08 02:10:26;;;;;;;9.17;2.47;;;;;;;-145.18;100.00;46638.91;4939986;28;20040;-63
2023/08/08 02:12:51;;;;;;;6.07;2.60;;;;;;;-145.18;100.00;46635.00;4952667;28;20483;-63
2023/08/08 02:15:17;;;;;;;9.47;3.37;;;;;;;-145.18;100.00;46635.00;4951982;28;20031;-63
2023/08/08 02:17:42;;;;;;;14.97;2.90;;;;;;;-145.18;100.00;46633.06;4944423;28;20023;-63
2023/08/08 02:20:08;;;;;;;8.63;3.27;;;;;;;-145.18;100.00;46638.91;4942791;28;20031;-63
2023/08/08 02:22:34;;;;;;;14.60;3.40;;;;;;;-145.18;100.00;46633.06;4945050;28;20027;-63
2023/08/08 02:24:59;;;;;;;11.10;2.83;;;;;;;-145.18;100.00;46636.94;4941475;28;20028;-63
2023/08/08 02:27:25;;;;;;;8.50;2.93;;;;;;;-145.18;100.00;46633.06;4940290;28;20066;-63
2023/08/08 02:29:50;;;;;;;8.37;3.23;;;;;;;-145.18;100.00;46629.13;4938565;28;20102;-63
2023/08/08 02:32:15;;;;;;;10.00;3.13;;;;;;;-145.18;100.00;46633.06;4934607;28;20027;-63
2023/08/08 02:34:42;;;;;;;10.03;3.00;;;;;;;-145.18;100.00;46631.09;4939768;28;20492;-63
2023/08/08 02:37:07;;;;;;;9.70;3.07;;;;;;;-145.18;100.00;46633.06;4952041;28;20032;-63
2023/08/08 02:39:33;;;;;;;10.37;3.77;;;;;;;-145.18;100.00;46635.00;4944817;28;20256;-63
2023/08/08 02:41:58;;;;;;;11.03;3.50;;;;;;;-145.18;100.00;46633.06;4933322;29;20058;-63
2023/08/08 02:44:24;;;;;;;8.83;3.20;;;;;;;-145.18;100.00;46633.06;4936330;28;20043;-63
2023/08/08 02:46:49;;;;;;;7.33;3.57;;;;;;;-145.18;100.00;46629.13;4932530;28;20539;-63
2023/08/08 02:49:14;;;;;;;6.70;3.50;;;;;;;-145.18;100.00;46629.13;4941286;29;20035;-63
2023/08/08 02:51:40;;;;;;;16.43;3.77;;;;;;;-145.18;100.00;46631.09;4935519;28;20450;-63
2023/08/08 02:54:05;;;;;;;13.27;4.17;;;;;;;-145.18;100.00;46629.13;4945442;28;20552;-63
2023/08/08 02:56:30;;;;;;;12.07;3.67;;;;;;;-145.18;100.00;46631.09;4932848;28;20064;-63
2023/08/08 02:58:56;;;;;;;13.40;4.13;;;;;;;-145.18;100.00;46629.13;4935249;28;20043;-63
2023/08/08 03:01:21;;;;;;;8.93;3.37;;;;;;;-145.18;100.00;46631.09;4941191;29;20050;-63
2023/08/08 03:03:47;;;;;;;10.80;3.90;;;;;;;-145.18;100.00;46629.13;4934595;29;20042;-63
2023/08/08 03:06:13;;;;;;;9.33;3.50;;;;;;;-145.18;100.00;46629.13;4945698;28;20086;-63
2023/08/08 03:08:38;;;;;;;11.17;3.70;;;;;;;-145.18;100.00;46631.09;4934111;28;20032;-63
2023/08/08 03:11:04;;;;;;;6.33;3.27;;;;;;;-145.18;100.00;46629.13;4932715;28;20039;-63
2023/08/08 03:13:29;;;;;;;14.20;3.77;;;;;;;-145.18;100.00;46660.41;4938055;29;20047;-63
2023/08/08 03:15:56;;;;;;;11.30;4.23;;;;;;;-145.18;100.00;46629.13;4945100;28;20031;-63
2023/08/08 03:18:22;;;;;;;12.03;5.23;;;;;;;-145.18;100.00;46629.13;4936813;28;20055;-63
2023/08/08 03:20:48;;;;;;;16.23;4.53;;;;;;;-145.18;100.00;46631.09;4933103;28;20130;-63
2023/08/08 03:23:13;;;;;;;12.97;4.63;;;;;;;-145.18;100.00;46629.13;4932538;28;20122;-63
2023/08/08 03:25:39;;;;;;;17.10;4.83;;;;;;;-145.18;100.00;46629.13;4945080;28;20403;-63
2023/08/08 03:28:04;;;;;;;16.40;5.13;;;;;;;-145.18;100.00;46631.09;4933290;28;20040;-63
2023/08/08 03:30:30;;;;;;;12.13;5.03;;;;;;;-145.18;100.00;46629.13;4931481;28;20447;-63
2023/08/08 03:32:55;;;;;;;14.57;5.30;;;;;;;-145.18;100.00;46629.13;4932626;28;20859;-64
2023/08/08 03:35:21;;;;;;;16.43;4.43;;;;;;;-145.18;100.00;46627.19;4938125;29;20499;-64
2023/08/08 03:37:46;;;;;;;11.63;5.03;;;;;;;-145.18;100.00;46627.19;4939825;28;20131;-63
2023/08/08 03:40:13;;;;;;;12.90;4.90;;;;;;;-145.18;100.00;46627.19;4932640;28;20560;-63
2023/08/08 03:42:39;;;;;;;14.50;4.20;;;;;;;-145.18;100.00;46625.22;4936227;28;20039;-63
2023/08/08 03:45:05;;;;;;;17.13;5.07;;;;;;;-145.18;100.00;46629.13;4933057;28;20039;-63
2023/08/08 03:47:31;;;;;;;15.57;5.53;;;;;;;-145.18;100.00;46625.22;4932572;29;20122;-63
2023/08/08 03:49:57;;;;;;;16.57;5.03;;;;;;;-145.18;100.00;46631.09;4932886;28;20499;-64
2023/08/08 03:52:23;;;;;;;16.83;5.63;;;;;;;-145.18;100.00;46625.22;4939334;29;20393;-63
2023/08/08 03:54:48;;;;;;;16.50;5.53;;;;;;;-145.18;100.00;46627.19;4937675;28;20032;-64
2023/08/08 03:57:14;;;;;;;17.23;5.70;;;;;;;-145.18;100.00;46660.41;4940819;29;20127;-64
2023/08/08 03:59:40;;;;;;;13.93;5.40;;;;;;;-145.18;100.00;46660.41;4948968;29;20019;-64
2023/08/08 04:02:05;;;;;;;17.60;5.77;;;;;;;-145.18;100.00;46625.22;4938604;28;20038;-64
2023/08/08 04:04:30;;;;;;;11.77;5.07;;;;;;;-145.18;100.00;46660.41;4941093;28;20044;-63
2023/08/08 04:06:57;;;;;;;19.43;5.73;;;;;;;-145.18;100.00;46660.41;4936849;28;20036;-64
2023/08/08 04:09:22;;;;;;;14.83;5.13;;;;;;;-145.18;100.00;46660.41;4935298;28;20551;-63
2023/08/08 04:11:48;;;;;;;17.23;5.70;;;;;;;-145.18;100.00;46629.13;4938617;28;20031;-64
2023/08/08 04:14:13;;;;;;;12.30;5.33;;;;;;;-145.18;100.00;46660.41;4945919;28;20028;-64
2023/08/08 04:16:39;;;;;;;17.13;5.30;;;;;;;-145.18;100.00;46627.19;4938171;28;20110;-63
2023/08/08 04:19:05;;;;;;;15.17;5.40;;;;;;;-145.18;100.00;46625.22;4947494;28;20388;-64
2023/08/08 04:21:32;;;;;;;14.73;5.47;;;;;;;-145.18;100.00;46623.28;4937682;28;20031;-63
2023/08/08 04:24:02;;;;;;;11.60;5.03;;;;;;;-145.18;100.00;46625.22;4926580;29;20035;-63
2023/08/08 04:26:27;;;;;;;17.90;5.17;;;;;;;-145.18;100.00;46660.41;4941295;29;20373;-63
2023/08/08 04:28:53;;;;;;;16.63;5.07;;;;;;;-145.18;100.00;46629.13;4948967;29;20038;-63
2023/08/08 04:31:18;;;;;;;17.30;5.33;;;;;;;-145.18;100.00;46629.13;4951333;28;20032;-64
2023/08/08 04:33:44;;;;;;;11.27;5.03;;;;;;;-145.18;100.00;46627.19;4946570;28;20064;-63
2023/08/08 04:36:10;;;;;;;15.40;5.57;;;;;;;-145.18;100.00;46623.28;4942221;28;20511;-64
2023/08/08 04:38:35;;;;;;;17.60;5.43;;;;;;;-145.18;100.00;46625.22;4945777;28;20050;-64
2023/08/08 04:41:00;;;;;;;17.73;5.20;;;;;;;-145.18;100.00;46629.13;4946021;29;20443;-64
2023/08/08 04:43:27;;;;;;;15.53;4.97;;;;;;;-145.18;100.00;46631.09;4939387;28;20031;-63
2023/08/08 04:45:53;;;;;;;15.37;5.60;;;;;;;-145.18;100.00;46625.22;4942808;28;20401;-64
2023/08/08 04:48:21;;;;;;;10.20;4.67;;;;;;;-145.18;100.00;46629.13;4939654;28;20035;-64
2023/08/08 04:50:47;;;;;;;16.13;5.30;;;;;;;-145.18;100.00;46625.22;4944742;28;20038;-65
2023/08/08 04:53:13;;;;;;;15.60;4.60;;;;;;;-145.18;100.00;46629.13;4952800;28;20027;-66
2023/08/08 04:55:39;;;;;;;11.17;4.70;;;;;;;-145.18;100.00;46631.09;4940921;29;20024;-66
2023/08/08 04:58:04;;;;;;;9.97;4.30;;;;;;;-145.18;100.00;46629.13;4941408;29;20043;-65
2023/08/08 05:00:30;;;;;;;12.00;4.07;;;;;;;-145.18;100.00;46631.09;4941522;28;20043;-65
2023/08/08 05:02:55;;;;;;;10.83;3.40;;;;;;;-145.18;100.00;46633.06;4939789;28;20028;-65
2023/08/08 05:05:21;;;;;;;11.60;3.47;;;;;;;-145.18;100.00;46633.06;4940823;28;20066;-66
2023/08/08 05:07:46;;;;;;;10.07;3.13;;;;;;;-145.18;100.00;46631.09;4946143;28;20039;-65
2023/08/08 05:10:11;;;;;;;16.70;3.57;;;;;;;-145.18;100.00;46633.06;4947305;28;20067;-65
2023/08/08 05:12:37;;;;;;;12.00;3.33;;;;;;;-145.18;100.00;46635.00;4934332;29;20032;-66
2023/08/08 05:15:02;;;;;;;12.73;3.50;;;;;;;-145.18;100.00;46635.00;4945452;28;20067;-65
2023/08/08 05:17:30;;;;;;;7.87;3.03;;;;;;;-145.18;100.00;46642.81;4934684;29;20114;-66
2023/08/08 05:19:56;;;;;;;10.53;3.20;;;;;;;-145.18;100.00;46640.88;4937816;28;20038;-65
2023/08/08 05:22:21;;;;;;;9.47;3.20;;;;;;;-145.18;100.00;46638.91;4941472;29;20404;-66
2023/08/08 05:24:47;;;;;;;11.67;2.97;;;;;;;-145.18;100.00;46644.78;4934847;28;20034;-66
2023/08/08 05:27:12;;;;;;;7.20;2.67;;;;;;;-145.18;100.00;46638.91;4934321;28;20384;-65
2023/08/08 05:29:38;;;;;;;9.67;2.57;;;;;;;-145.18;100.00;46644.78;4932295;28;20031;-65
2023/08/08 05:32:06;;;;;;;8.57;2.77;;;;;;;-145.18;100.00;46650.63;4935014;28;20080;-65
2023/08/08 05:34:32;;;;;;;5.33;2.60;;;;;;;-145.18;100.00;46644.78;4943934;29;20035;-65
2023/08/08 05:36:57;;;;;;;7.73;1.90;;;;;;;-145.18;100.00;46652.59;4933586;29;20412;-65
2023/08/08 05:39:23;;;;;;;10.70;2.53;;;;;;;-145.18;100.00;46650.63;4940714;28;20031;-65
2023/08/08 05:41:48;;;;;;;6.97;3.37;;;;;;;-145.18;100.00;46650.63;4943290;29;20657;-65
2023/08/08 05:44:13;;;;;;;6.63;2.67;;;;;;;-145.18;100.00;46652.59;4934498;28;20079;-65
2023/08/08 05:46:39;;;;;;;6.67;2.77;;;;;;;-145.18;100.00;46648.69;4949362;28;20167;-65
2023/08/08 05:49:04;;;;;;;6.50;2.30;;;;;;;-145.18;100.00;46654.53;4948030;28;20055;-65
2023/08/08 05:51:29;;;;;;;13.33;3.50;;;;;;;-145.18;100.00;46652.59;4942286;29;20681;-65
2023/08/08 05:53:55;;;;;;;10.87;3.10;;;;;;;-145.18;100.00;46646.72;4941613;28;20480;-65
2023/08/08 05:56:20;;;;;;;7.87;2.40;;;;;;;-145.18;100.00;46652.59;4932896;29;20086;-65
2023/08/08 05:58:46;;;;;;;5.67;2.33;;;;;;;-145.18;100.00;46648.69;4933685;29;20079;-64
2023/08/08 06:01:12;;;;;;;12.63;2.80;;;;;;;-145.18;100.00;46652.59;4939661;28;20467;-64
2023/08/08 06:03:37;;;;;;;6.33;2.00;;;;;;;-145.18;100.00;46654.53;4939172;28;20032;-64
2023/08/08 06:06:04;;;;;;;5.07;1.90;;;;;;;-145.18;100.00;46652.59;4946223;28;20081;-64
2023/08/08 06:08:29;;;;;;;6.23;1.80;;;;;;;-145.18;100.00;46648.69;4934897;29;20031;-64
2023/08/08 06:10:54;;;;;;;2.83;1.30;;;;;;;-145.18;100.00;46654.53;4940840;28;20109;-63
2023/08/08 06:13:20;;;;;;;4.67;1.13;;;;;;;-145.18;100.00;46652.59;4938794;29;20024;-63
2023/08/08 06:15:45;;;;;;;2.33;1.00;;;;;;;-145.18;100.00;46654.53;4944214;28;20110;-64
2023/08/08 06:18:11;;;;;;;1.87;1.37;;;;;;;-145.18;100.00;46656.50;4947796;28;20023;-63
2023/08/08 06:20:36;;;;;;;3.67;1.00;;;;;;;-145.18;100.00;46658.44;4939344;28;20059;-64
2023/08/08 06:23:01;;;;;;;2.23;1.20;;;;;;;-145.18;100.00;46662.34;4911709;29;20035;-64
2023/08/08 06:25:28;;;;;;;4.77;1.20;;;;;;;-145.18;100.00;46668.22;4938498;28;20093;-64
2023/08/08 06:27:53;;;;;;;5.73;1.53;;;;;;;-145.18;100.00;46668.22;4950540;28;20034;-64
2023/08/08 06:30:18;;;;;;;4.53;1.00;;;;;;;-145.18;100.00;46668.22;4941337;28;20046;-64
2023/08/08 06:32:44;;;;;;;2.07;1.00;;;;;;;-145.18;100.00;46670.16;4945340;28;20031;-63
2023/08/08 06:35:10;;;;;;;2.40;1.20;;;;;;;-145.18;100.00;46670.16;4932971;28;20645;-63
2023/08/08 06:37:35;;;;;;;4.10;1.20;;;;;;;-145.18;100.00;46676.03;4938568;28;20093;-63
2023/08/08 06:40:01;;;;;;;4.27;1.30;;;;;;;-145.18;100.00;46676.03;4933547;28;20124;-64
2023/08/08 06:42:26;;;;;;;5.73;1.30;;;;;;;-145.18;100.00;46674.06;4932400;28;20095;-63
2023/08/08 06:44:52;;;;;;;3.60;1.13;;;;;;;-145.18;100.00;46679.94;4934749;28;20091;-64
2023/08/08 06:47:17;;;;;;;4.90;1.00;;;;;;;-145.18;100.00;46676.03;4931532;28;20035;-64
2023/08/08 06:49:43;;;;;;;7.43;1.30;;;;;;;-145.18;100.00;46672.13;4937192;29;20035;-64
2023/08/08 06:52:08;;;;;;;4.13;1.10;;;;;;;-145.18;100.00;46674.06;4947565;28;20043;-64
2023/08/08 06:54:33;;;;;;;2.50;0.90;;;;;;;-145.18;100.00;46672.13;4945532;29;20043;-64
2023/08/08 06:56:59;;;;;;;4.93;0.97;;;;;;;-145.18;100.00;46676.03;4940626;28;20400;-64
2023/08/08 06:59:26;;;;;;;3.00;1.23;;;;;;;-145.18;100.00;46676.03;4932485;28;20028;-64
2023/08/08 07:01:51;;;;;;;4.77;1.00;;;;;;;-145.18;100.00;46677.97;4937702;29;20023;-64
2023/08/08 07:04:18;;;;;;;3.53;1.20;;;;;;;-145.18;100.00;46679.94;4922764;29;20039;-64
2023/08/08 07:06:44;;;;;;;5.47;1.10;;;;;;;-145.18;100.00;46683.84;4937654;29;20510;-63
2023/08/08 07:09:10;;;;;;;5.20;1.47;;;;;;;-145.18;100.00;46681.88;4933230;28;20059;-64
2023/08/08 07:11:36;;;;;;;1.70;0.97;;;;;;;-145.18;100.00;46683.84;4937007;29;20063;-64
2023/08/08 07:14:02;;;;;;;3.03;0.93;;;;;;;-145.18;100.00;46687.75;4931649;28;20032;-64
2023/08/08 07:16:27;;;;;;;1.43;1.00;;;;;;;-145.18;100.00;46687.75;4936759;28;20380;-64
2023/08/08 07:18:53;;;;;;;2.90;1.00;;;;;;;-145.18;100.00;46685.78;4938827;28;20058;-63
2023/08/08 07:21:18;;;;;;;3.30;0.90;;;;;;;-145.18;100.00;46691.66;4936692;28;20039;-64
2023/08/08 07:23:44;;;;;;;5.63;0.80;;;;;;;-145.18;100.00;46691.66;4939120;29;20039;-64
2023/08/08 07:26:10;;;;;;;3.63;0.90;;;;;;;-145.18;100.00;46699.47;4942005;28;20043;-63
2023/08/08 07:28:35;;;;;;;2.33;0.90;;;;;;;-145.18;100.00;46695.56;4940488;28;20050;-64
2023/08/08 07:31:01;;;;;;;4.80;1.03;;;;;;;-145.18;100.00;46701.41;4944987;28;20032;-64
2023/08/08 07:33:26;;;;;;;1.43;1.00;;;;;;;-145.18;100.00;46695.56;4942266;28;20036;-64
2023/08/08 07:35:52;;;;;;;3.17;0.70;;;;;;;-145.18;100.00;46691.66;4940677;29;20159;-64
2023/08/08 07:38:17;;;;;;;4.70;0.87;;;;;;;-145.18;100.00;46695.56;4935408;28;20126;-64
2023/08/08 07:40:42;;;;;;;1.53;0.83;;;;;;;-145.18;100.00;46693.59;4949447;28;20507;-63
2023/08/08 07:43:08;;;;;;;2.67;0.73;;;;;;;-145.18;100.00;46685.78;4943658;28;20038;-63
2023/08/08 07:45:33;;;;;;;2.57;0.80;;;;;;;-145.18;100.00;46654.53;4952970;28;20533;-63
2023/08/08 07:47:58;;;;;;;2.93;0.87;;;;;;;-145.18;100.00;46668.22;4943070;29;20506;-64
2023/08/08 07:50:24;;;;;;;3.17;0.70;;;;;;;-145.18;100.00;46666.25;4935499;28;20050;-64
2023/08/08 07:52:49;;;;;;;1.60;0.80;;;;;;;-145.18;100.00;46599.84;4943648;29;20142;-64
2023/08/08 07:55:15;;;;;;;1.70;0.90;;;;;;;-145.18;100.00;46574.44;4945099;28;20038;-63
2023/08/08 07:57:40;;;;;;;1.20;0.60;;;;;;;-145.18;100.00;46576.41;4934593;28;20463;-63
2023/08/08 08:00:11;;;;;;;3.67;0.60;;;;;;;-145.18;100.00;46580.31;4936179;29;20028;-64
2023/08/08 08:02:37;;;;;;;0.77;0.60;;;;;;;-145.18;100.00;46580.31;4953729;29;20043;-63
2023/08/08 08:05:06;;;;;;;3.17;0.87;;;;;;;-145.18;100.00;46574.44;4939452;28;20052;-64
2023/08/08 08:07:32;;;;;;;1.50;0.87;;;;;;;-145.18;100.00;46578.34;4943895;28;20040;-64
2023/08/08 08:09:57;;;;;;;3.73;0.80;;;;;;;-145.18;100.00;46590.06;4935033;28;20499;-63
2023/08/08 08:12:23;;;;;;;1.57;0.83;;;;;;;-145.18;100.00;46590.06;4942789;28;20039;-64
2023/08/08 08:14:49;;;;;;;3.93;0.60;;;;;;;-145.18;100.00;46590.06;4936293;29;20042;-63
2023/08/08 08:17:14;;;;;;;3.80;0.83;;;;;;;-145.18;100.00;46593.97;4943101;29;20545;-63
2023/08/08 08:19:39;;;;;;;2.17;0.60;;;;;;;-145.18;100.00;46586.16;4936480;29;20054;-64
2023/08/08 08:22:05;;;;;;;2.03;0.80;;;;;;;-145.18;100.00;46592.03;4950694;29;20117;-64
2023/08/08 08:24:30;;;;;;;0.63;0.60;;;;;;;-145.18;100.00;46609.59;4936980;28;20031;-64
2023/08/08 08:26:56;;;;;;;7.03;1.00;;;;;;;-145.18;100.00;46590.06;4923804;29;20043;-64
2023/08/08 08:29:21;;;;;;;0.87;0.67;;;;;;;-145.18;100.00;46595.94;4935040;28;20034;-63
2023/08/08 08:31:47;;;;;;;13.23;1.43;;;;;;;-145.18;100.00;46597.88;4948111;29;20035;-63
2023/08/08 08:34:12;;;;;;;4.63;0.70;;;;;;;-145.18;100.00;46597.88;4935773;28;20031;-63
2023/08/08 08:36:37;;;;;;;1.10;0.70;;;;;;;-145.18;100.00;46607.66;4941263;28;20051;-63
2023/08/08 08:39:03;;;;;;;3.90;0.90;;;;;;;-145.18;100.00;46586.16;4933974;29;20036;-63
2023/08/08 08:41:31;;;;;;;1.47;0.77;;;;;;;-145.18;100.00;46588.13;4945205;28;20399;-63
2023/08/08 08:43:57;;;;;;;2.43;0.77;;;;;;;-145.18;100.00;46586.16;4935501;29;20059;-64
2023/08/08 08:46:26;;;;;;;0.57;0.50;;;;;;;-145.18;100.00;46582.25;4942710;28;20078;-63
2023/08/08 08:48:54;;;;;;;0.43;0.43;;;;;;;-145.18;100.00;46586.16;4944399;28;20047;-63
2023/08/08 08:51:20;;;;;;;9.00;0.70;;;;;;;-145.18;100.00;46595.94;4951261;29;20535;-63
2023/08/08 08:53:46;;;;;;;1.80;0.80;;;;;;;-145.18;100.00;46590.06;4940415;28;20114;-63
2023/08/08 08:56:14;;;;;;;1.50;0.60;;;;;;;-145.18;100.00;46588.13;4935035;28;20031;-63
2023/08/08 08:58:40;;;;;;;0.83;0.63;;;;;;;-145.18;100.00;46609.59;4934564;28;20123;-63
2023/08/08 09:01:07;;;;;;;1.00;0.80;;;;;;;-145.18;100.00;46613.50;4934560;28;20391;-63
2023/08/08 09:03:33;;;;;;;3.10;0.73;;;;;;;-145.18;100.00;46601.78;4935770;28;20043;-63
2023/08/08 09:05:59;;;;;;;2.30;1.00;;;;;;;-145.18;100.00;46611.56;4935313;29;20576;-63
2023/08/08 09:08:25;;;;;;;1.23;0.60;;;;;;;-145.18;100.00;46607.66;4942677;28;20067;-64
2023/08/08 09:10:50;;;;;;;2.90;1.10;;;;;;;-145.18;100.00;46605.69;4945212;28;20514;-64
2023/08/08 09:13:16;;;;;;;2.30;0.70;;;;;;;-145.18;100.00;46625.22;4940367;28;20032;-64
2023/08/08 09:15:42;;;;;;;2.83;0.90;;;;;;;-145.18;100.00;46621.31;4945140;28;20031;-63
2023/08/08 09:18:07;;;;;;;0.97;0.70;;;;;;;-145.18;100.00;46593.97;4935824;28;20778;-63
2023/08/08 09:20:33;;;;;;;1.10;0.53;;;;;;;-145.18;100.00;46611.56;4948853;28;20038;-64
2023/08/08 09:22:58;;;;;;;1.93;0.80;;;;;;;-145.18;100.00;46607.66;4935995;28;20492;-63
2023/08/08 09:25:24;;;;;;;1.23;0.80;;;;;;;-145.18;100.00;46621.31;4933873;28;20039;-63
2023/08/08 09:27:53;;;;;;;2.83;0.70;;;;;;;-145.18;100.00;46609.59;4943342;29;20135;-64
2023/08/08 09:30:19;;;;;;;2.73;0.80;;;;;;;-145.18;100.00;46609.59;4940514;28;20027;-63
2023/08/08 09:32:45;;;;;;;2.97;0.80;;;;;;;-145.18;100.00;46625.22;4935310;28;20028;-64
2023/08/08 09:35:11;;;;;;;2.07;0.97;;;;;;;-145.18;100.00;46627.19;4940878;29;20395;-64
2023/08/08 09:37:37;;;;;;;3.73;1.00;;;;;;;-145.18;100.00;46627.19;4936912;28;20050;-64
2023/08/08 09:40:07;;;;;;;2.70;0.77;;;;;;;-145.18;100.00;46638.91;4936863;28;20107;-64
2023/08/08 09:42:34;;;;;;;1.57;0.87;;;;;;;-145.18;100.00;46599.84;4941554;28;20047;-63
2023/08/08 09:45:00;;;;;;;1.83;1.17;;;;;;;-145.18;100.00;46652.59;4946688;28;20032;-64
2023/08/08 09:47:31;;;;;;;1.73;0.90;;;;;;;-145.18;100.00;46625.22;4937237;29;20119;-64
2023/08/08 09:50:05;;;;;;;1.70;0.77;;;;;;;-145.18;100.00;46640.88;4940064;28;20027;-63
2023/08/08 09:52:33;;;;;;;1.10;0.83;;;;;;;-145.18;100.00;46644.78;4942559;29;20028;-65
2023/08/08 09:54:59;;;;;;;3.30;1.07;;;;;;;-145.18;100.00;46654.53;4933752;28;20028;-64
2023/08/08 09:57:25;;;;;;;1.27;0.90;;;;;;;-145.18;100.00;46636.94;4944855;28;20444;-64
2023/08/08 09:59:52;;;;;;;2.77;0.90;;;;;;;-145.18;100.00;46695.56;4944203;28;20114;-64
2023/08/08 10:02:17;;;;;;;3.60;1.00;;;;;;;-145.18;100.00;46691.66;4952313;28;20035;-64
2023/08/08 10:04:45;;;;;;;1.80;1.07;;;;;;;-145.18;100.00;46658.44;4941491;28;20514;-64
2023/08/08 10:07:10;;;;;;;3.13;0.90;;;;;;;-145.18;100.00;46662.34;4946938;28;20027;-64
2023/08/08 10:09:37;;;;;;;2.07;1.10;;;;;;;-145.18;100.00;46635.00;4941849;28;20471;-64
2023/08/08 10:12:04;;;;;;;2.50;0.70;;;;;;;-145.18;100.00;46660.41;4942666;28;20047;-64
2023/08/08 10:14:31;;;;;;;0.80;0.70;;;;;;;-145.18;100.00;46658.44;4934382;28;20506;-64
2023/08/08 10:16:57;;;;;;;2.70;1.10;;;;;;;-145.18;100.00;46629.13;4941243;28;20062;-64
2023/08/08 10:19:23;;;;;;;2.40;1.10;;;;;;;-145.18;100.00;46623.28;4934256;28;20066;-64
2023/08/08 10:21:57;;;;;;;2.10;0.90;;;;;;;-145.18;100.00;46652.59;4947719;28;20039;-64
2023/08/08 10:24:22;;;;;;;1.33;0.90;;;;;;;-145.18;100.00;46672.13;4944639;29;20042;-64
2023/08/08 10:26:59;;;;;;;3.00;0.83;;;;;;;-145.18;100.00;46677.97;4948440;28;20435;-64
2023/08/08 10:29:26;;;;;;;4.70;1.10;;;;;;;-145.18;100.00;46666.25;4934278;28;20046;-64
2023/08/08 10:32:01;;;;;;;2.57;1.13;;;;;;;-145.18;100.00;46640.88;4945443;29;20039;-64
2023/08/08 10:34:43;;;;;;;1.87;0.90;;;;;;;-145.18;100.00;46664.31;4932889;28;20031;-64
2023/08/08 10:37:17;;;;;;;1.70;0.97;;;;;;;-145.18;100.00;46689.69;4938738;28;20046;-64
2023/08/08 10:39:58;;;;;;;3.30;0.97;;;;;;;-145.18;100.00;46685.78;4932173;28;20035;-64
2023/08/08 10:42:25;;;;;;;1.23;0.80;;;;;;;-145.18;100.00;46765.88;4937259;28;20170;-64
2023/08/08 10:44:55;;;;;;;5.47;0.90;;;;;;;-145.18;100.00;46754.16;4932271;29;20031;-64
2023/08/08 10:47:24;;;;;;;6.17;0.83;;;;;;;-145.18;100.00;46715.09;4940714;28;20670;-64
2023/08/08 10:50:11;;;;;;;0.60;0.60;;;;;;;-145.18;100.00;47164.38;4940833;28;20476;-65
2023/08/08 10:52:54;;;;;;;1.27;0.83;;;;;;;-145.18;100.00;47230.81;4938252;29;20027;-64
2023/08/08 10:55:20;;;;;;;2.93;1.00;;;;;;;-145.18;100.00;47017.88;4932923;28;20042;-65
2023/08/08 10:57:54;;;;;;;2.90;1.10;;;;;;;-145.18;100.00;46851.81;4934115;29;20063;-64
2023/08/08 11:00:20;;;;;;;2.13;0.80;;;;;;;-145.18;100.00;47043.28;4931967;28;20047;-64
2023/08/08 11:02:46;;;;;;;1.13;0.70;;;;;;;-145.18;100.00;47242.53;4936048;29;20093;-65
2023/08/08 11:05:12;;;;;;;1.13;0.80;;;;;;;-145.18;100.00;47299.19;4930303;28;20040;-64